Home   Weather   USA   Midland   Past weeks
Flag for USA

Past Weather in Midland, Texas, USA — Yesterday and Last 2 Weeks

Currently: 76 °F. Sunny. (Weather station: Midland - Midland Airpark, USA). See more current weather

Past Weather in Midland — Graph

°F

Midland Temperature Yesterday

Maximum temperature yesterday: 77 °F (at 4:15 pm)
Minimum temperature yesterday: 34 °F (at 6:55 am)
Average temperature yesterday: 54 °F

High & Low Weather Summary for the Past Weeks

 TemperatureHumidityPressure
High77 °F (Feb 5, 4:15 pm)96% (Jan 24, 8:35 am)30.58 "Hg (Jan 24, 8:35 am)
Low20 °F (Jan 31, 8:55 am)10% (Feb 5, 2:55 pm)29.83 "Hg (Feb 6, 1:35 pm)
Average39 °F65%30.17 "Hg
* Reported Jan 22 1:15 pm — Feb 6 1:35 pm, Midland. Weather by CustomWeather, © 2023

Note: Actual official high and low records may vary slightly from our data, if they occured in-between our weather recording intervals... More about our weather records

Midland Weather History for the Previous 24 Hours

Scroll right to see more
 ConditionsComfort  
Time TempWeatherWind HumidityBarometerVisibility
1:35 pm
Mon, Feb 6
76 °FSunny.14 mph17%29.83 "Hg10 mi
1:15 pm74 °FSunny.12 mph20%29.85 "Hg10 mi
12:55 pm74 °FSunny.13 mph20%29.87 "Hg10 mi
12:35 pm72 °FSunny.13 mph21%29.88 "Hg10 mi
12:15 pm72 °FSunny.15 mph21%29.89 "Hg10 mi
11:55 am72 °FSunny.13 mph22%29.90 "Hg10 mi
11:15 am67 °FSunny.10 mph28%29.93 "Hg10 mi
10:55 am64 °FSunny.9 mph34%29.93 "Hg10 mi
10:15 am61 °FSunny.12 mph40%29.93 "Hg10 mi
9:55 am59 °FSunny.10 mph43%29.93 "Hg10 mi
9:35 am58 °FSunny.12 mph46%29.93 "Hg10 mi
9:15 am56 °FSunny.9 mph51%29.93 "Hg10 mi
8:55 am55 °FSunny.13 mph52%29.92 "Hg10 mi
8:35 am54 °FSunny.12 mph53%29.92 "Hg10 mi
8:15 am53 °FSunny.14 mph56%29.92 "Hg10 mi
7:55 am53 °FSunny.12 mph57%29.92 "Hg10 mi
7:35 am53 °FClear.14 mph57%29.92 "Hg10 mi
7:15 am53 °FClear.15 mph56%29.92 "Hg10 mi
6:55 am53 °FClear.15 mph57%29.92 "Hg10 mi
6:15 am52 °FClear.15 mph58%29.92 "Hg10 mi
5:55 am52 °FClear.14 mph58%29.92 "Hg10 mi
5:35 am52 °FClear.14 mph58%29.92 "Hg10 mi
5:15 am52 °FClear.15 mph58%29.92 "Hg10 mi
4:55 am53 °FClear.15 mph58%29.93 "Hg10 mi
4:35 am53 °FClear.14 mph57%29.94 "Hg10 mi
4:15 am53 °FClear.12 mph56%29.94 "Hg10 mi
3:55 am53 °FClear.9 mph56%29.95 "Hg10 mi
3:35 am53 °FClear.12 mph56%29.96 "Hg10 mi
3:15 am53 °FClear.13 mph54%29.96 "Hg10 mi
2:55 am53 °FClear.12 mph54%29.96 "Hg10 mi
2:35 am53 °FClear.12 mph53%29.96 "Hg10 mi
1:55 am53 °FClear.9 mph51%29.98 "Hg10 mi
1:35 am52 °FClear.10 mph51%29.99 "Hg10 mi
12:55 am54 °FClear.10 mph46%30.00 "Hg10 mi
12:15 am55 °FClear.12 mph43%30.02 "Hg10 mi
11:55 pm
Sun, Feb 5
56 °FClear.14 mph41%30.03 "Hg10 mi
11:35 pm58 °FClear.13 mph39%30.04 "Hg10 mi
11:15 pm58 °FClear.14 mph39%30.04 "Hg10 mi
10:55 pm58 °FClear.14 mph39%30.04 "Hg10 mi
10:35 pm58 °FClear.14 mph39%30.04 "Hg10 mi
9:55 pm59 °FClear.12 mph36%30.04 "Hg10 mi
9:15 pm61 °FClear.15 mph31%30.03 "Hg10 mi
8:55 pm60 °FClear.9 mph28%30.03 "Hg10 mi
8:35 pm61 °FClear.8 mph25%30.03 "Hg10 mi
8:15 pm62 °FClear.9 mph21%30.03 "Hg10 mi
7:55 pm60 °FClear.12 mph21%30.04 "Hg10 mi
7:15 pm63 °FClear.7 mph19%30.04 "Hg10 mi
5:35 pm74 °FSunny.10 mph12%30.03 "Hg10 mi
4:55 pm75 °FSunny.10 mph10%30.03 "Hg10 mi
4:15 pm77 °FSunny.13 mph11%30.05 "Hg10 mi
3:55 pm76 °FSunny.9 mph11%30.05 "Hg10 mi
3:35 pm76 °FSunny.17 mph10%30.06 "Hg10 mi
3:15 pm76 °FSunny.12 mph11%30.07 "Hg10 mi
2:55 pm76 °FSunny.14 mph10%30.08 "Hg10 mi
2:35 pm75 °FSunny.10 mph11%30.09 "Hg10 mi
2:15 pm74 °FSunny.14 mph12%30.11 "Hg10 mi
Weather by CustomWeather, © 2023

See weather overview